Time;durP1;ratioP1;P1;durP2;ratioP2;P2;SDS_P1;SDS_P2;PMS_P1;PMS_P2;Temp;Humidity;BMP_temperature;BMP_pressure;BME280_temperature;BME280_humidity;BME280_pressure;Samples;Min_cycle;Max_cycle;Signal;HPM_P1;HPM_P2
2023/10/21 00:03:37;;;;;;;1.40;0.88;;;15.90;76.90;;;;;;10530176;28;20023;-63
2023/10/21 00:08:37;;;;;;;1.42;1.00;;;15.90;76.90;;;;;;10531005;28;20024;-64
2023/10/21 00:13:38;;;;;;;2.85;1.05;;;15.90;76.90;;;;;;10546757;28;20024;-64
2023/10/21 00:18:39;;;;;;;3.25;1.42;;;15.90;76.90;;;;;;10531386;28;20027;-64
2023/10/21 00:23:40;;;;;;;2.17;0.93;;;15.90;76.90;;;;;;10530956;28;20026;-64
2023/10/21 00:28:41;;;;;;;2.78;1.20;;;15.90;76.90;;;;;;10531282;28;20012;-64
2023/10/21 00:33:42;;;;;;;3.63;0.95;;;15.90;76.90;;;;;;10530657;28;20047;-64
2023/10/21 00:38:42;;;;;;;1.70;0.98;;;15.90;76.90;;;;;;10530201;28;20032;-64
2023/10/21 00:43:43;;;;;;;2.35;1.15;;;15.90;76.90;;;;;;10530483;28;20231;-63
2023/10/21 00:48:49;;;;;;;0.82;0.60;;;15.90;76.90;;;;;;10512269;28;20058;-64
2023/10/21 00:53:50;;;;;;;2.35;1.50;;;15.90;76.90;;;;;;10530030;28;20499;-64
2023/10/21 00:58:51;;;;;;;3.63;1.52;;;15.80;76.90;;;;;;10530155;28;20133;-64
2023/10/21 01:03:52;;;;;;;2.33;1.10;;;15.90;76.90;;;;;;10529879;28;20051;-64
2023/10/21 01:08:52;;;;;;;2.78;1.00;;;15.90;76.90;;;;;;10511563;28;20433;-63
2023/10/21 01:13:55;;;;;;;2.08;0.90;;;15.90;76.90;;;;;;10529727;28;20035;-64
2023/10/21 01:18:56;;;;;;;1.50;1.08;;;15.90;76.90;;;;;;10511412;28;20064;-64
2023/10/21 01:23:57;;;;;;;2.63;1.20;;;15.90;76.90;;;;;;10530479;28;20062;-63
2023/10/21 01:28:58;;;;;;;1.80;1.25;;;15.80;76.80;;;;;;10514220;28;20017;-64
2023/10/21 01:33:58;;;;;;;1.90;0.90;;;15.80;76.80;;;;;;10529368;28;20028;-64
2023/10/21 01:38:59;;;;;;;3.55;1.25;;;15.80;76.80;;;;;;10528893;28;20024;-64
2023/10/21 01:44:00;;;;;;;1.73;0.82;;;15.80;76.80;;;;;;10527879;28;20039;-65
2023/10/21 01:49:00;;;;;;;1.63;1.13;;;15.80;76.80;;;;;;10529490;28;20502;-64
2023/10/21 01:54:01;;;;;;;2.72;1.30;;;15.80;76.80;;;;;;10528203;28;20047;-64
2023/10/21 01:59:02;;;;;;;1.80;1.05;;;15.80;76.80;;;;;;10533545;28;20107;-64
2023/10/21 02:04:05;;;;;;;2.13;1.15;;;15.80;76.80;;;;;;10535898;28;20028;-64
2023/10/21 02:09:05;;;;;;;1.67;0.93;;;15.80;76.90;;;;;;10536114;28;20092;-64
2023/10/21 02:14:06;;;;;;;2.60;0.98;;;15.80;76.90;;;;;;10535684;28;20100;-64
2023/10/21 02:19:07;;;;;;;1.90;1.20;;;15.80;76.90;;;;;;10535433;28;20028;-64
2023/10/21 02:24:08;;;;;;;1.80;1.13;;;15.80;76.80;;;;;;10535991;28;20042;-63
2023/10/21 02:29:09;;;;;;;2.78;0.82;;;15.80;76.90;;;;;;10537207;28;20016;-63
2023/10/21 02:34:09;;;;;;;1.52;0.88;;;15.80;76.80;;;;;;10533685;28;20038;-63
2023/10/21 02:39:11;;;;;;;2.15;1.17;;;15.80;76.80;;;;;;10534794;28;20024;-64
2023/10/21 02:44:12;;;;;;;1.20;0.77;;;15.80;77.40;;;;;;10534253;28;20020;-64
2023/10/21 02:49:12;;;;;;;1.70;1.10;;;15.80;76.80;;;;;;10534787;28;20256;-64
2023/10/21 02:54:13;;;;;;;2.08;0.95;;;15.80;76.80;;;;;;10534210;28;20551;-64
2023/10/21 02:59:14;;;;;;;1.33;0.88;;;15.80;76.80;;;;;;10534164;28;20386;-64
2023/10/21 03:04:15;;;;;;;2.17;0.80;;;15.80;76.80;;;;;;10533632;28;20471;-64
2023/10/21 03:09:16;;;;;;;1.10;0.88;;;15.80;76.80;;;;;;10532641;28;20032;-62
2023/10/21 03:14:16;;;;;;;1.15;0.77;;;15.80;76.80;;;;;;10533321;28;20035;-64
2023/10/21 03:19:17;;;;;;;1.95;1.17;;;15.80;76.90;;;;;;10533093;28;20032;-63
2023/10/21 03:24:18;;;;;;;2.00;1.02;;;15.70;76.80;;;;;;10532634;28;20105;-65
2023/10/21 03:29:19;;;;;;;1.33;1.05;;;15.80;76.80;;;;;;10535511;28;20144;-63
2023/10/21 03:34:19;;;;;;;2.20;1.05;;;15.80;76.80;;;;;;10532193;28;20038;-64
2023/10/21 03:39:21;;;;;;;1.55;1.10;;;15.80;76.80;;;;;;10548013;28;20024;-64
2023/10/21 03:44:21;;;;;;;2.35;0.73;;;15.70;76.80;;;;;;10513861;28;20024;-64
2023/10/21 03:49:22;;;;;;;1.13;0.85;;;15.80;76.80;;;;;;10532226;28;20093;-64
2023/10/21 03:54:23;;;;;;;1.65;0.82;;;15.70;76.70;;;;;;10543457;28;20048;-64
2023/10/21 03:59:24;;;;;;;1.38;0.82;;;15.70;76.80;;;;;;10531059;28;20028;-64
2023/10/21 04:04:24;;;;;;;1.00;0.80;;;15.90;76.50;;;;;;10529157;28;20099;-64
2023/10/21 04:09:26;;;;;;;2.70;1.00;;;16.10;75.60;;;;;;10525922;28;20584;-64
2023/10/21 04:14:27;;;;;;;1.35;0.75;;;16.40;74.30;;;;;;10543459;28;20028;-63
2023/10/21 04:19:28;;;;;;;2.08;1.00;;;16.70;73.30;;;;;;10546494;28;20411;-64
2023/10/21 04:24:28;;;;;;;1.63;0.75;;;16.90;72.60;;;;;;10527268;28;20075;-63
2023/10/21 04:29:32;;;;;;;2.50;0.85;;;17.10;72.30;;;;;;10529894;28;20038;-64
2023/10/21 04:34:33;;;;;;;1.23;0.70;;;17.10;72.40;;;;;;10526562;28;20042;-64
2023/10/21 04:39:33;;;;;;;1.48;1.35;;;17.00;72.60;;;;;;10526156;28;20030;-63
2023/10/21 04:44:34;;;;;;;1.73;0.70;;;17.00;72.80;;;;;;10514144;28;20383;-64
2023/10/21 04:49:35;;;;;;;1.17;0.65;;;17.00;72.80;;;;;;10532872;28;20332;-64
2023/10/21 04:54:35;;;;;;;1.77;0.80;;;17.10;72.80;;;;;;10532350;28;20077;-63
2023/10/21 04:59:38;;;;;;;1.10;0.90;;;17.00;72.90;;;;;;10532717;28;20111;-64
2023/10/21 05:04:39;;;;;;;1.27;0.90;;;17.00;73.00;;;;;;10531749;28;20042;-64
2023/10/21 05:09:40;;;;;;;0.90;0.70;;;16.90;73.20;;;;;;10514547;28;20028;-64
2023/10/21 05:14:41;;;;;;;2.25;0.70;;;16.90;73.50;;;;;;10532118;28;20036;-61
2023/10/21 05:19:42;;;;;;;3.47;1.38;;;16.90;73.80;;;;;;10532286;28;20036;-62
2023/10/21 05:24:42;;;;;;;4.00;0.90;;;16.90;74.40;;;;;;10507842;28;20404;-61
2023/10/21 05:29:43;;;;;;;4.18;1.33;;;17.00;75.40;;;;;;10504344;28;20044;-61
2023/10/21 05:34:44;;;;;;;5.53;2.10;;;17.10;75.50;;;;;;10538074;28;20031;-63
2023/10/21 05:39:44;;;;;;;4.13;1.38;;;17.10;75.40;;;;;;10540038;28;20085;-64
2023/10/21 05:44:47;;;;;;;6.13;1.10;;;16.80;75.80;;;;;;10521261;28;20050;-59
2023/10/21 05:49:47;;;;;;;10.52;2.10;;;16.70;76.00;;;;;;10509786;28;20024;-63
2023/10/21 05:54:48;;;;;;;5.88;1.42;;;16.60;76.20;;;;;;10517286;28;20052;-63
2023/10/21 05:59:49;;;;;;;3.58;1.42;;;16.60;76.40;;;;;;10535837;28;20039;-63
2023/10/21 06:04:49;;;;;;;5.82;2.13;;;16.50;76.40;;;;;;10546284;28;20031;-63
2023/10/21 06:09:50;;;;;;;5.68;1.75;;;16.50;76.50;;;;;;10549403;28;20028;-62
2023/10/21 06:14:51;;;;;;;4.82;1.30;;;16.40;76.50;;;;;;10550798;28;20506;-63
2023/10/21 06:19:53;;;;;;;6.45;1.20;;;16.40;76.50;;;;;;10539677;28;20395;-63
2023/10/21 06:24:53;;;;;;;3.78;1.40;;;16.40;76.60;;;;;;10541563;28;20047;-64
2023/10/21 06:29:54;;;;;;;1.63;1.00;;;16.30;76.50;;;;;;10541009;28;20036;-64
2023/10/21 06:34:55;;;;;;;2.88;1.13;;;16.30;76.60;;;;;;10551136;28;20035;-64
2023/10/21 06:39:55;;;;;;;3.20;1.00;;;16.40;76.50;;;;;;10524641;28;20024;-63
2023/10/21 06:44:56;;;;;;;4.00;1.15;;;16.30;76.40;;;;;;10539323;28;20035;-63
2023/10/21 06:49:57;;;;;;;2.25;0.90;;;16.30;76.40;;;;;;10553254;28;20039;-64
2023/10/21 06:54:57;;;;;;;4.05;1.20;;;16.40;76.30;;;;;;10559214;28;20040;-63
2023/10/21 06:59:59;;;;;;;4.47;1.10;;;16.40;76.90;;;;;;10539945;28;20032;-64
2023/10/21 07:05:00;;;;;;;2.88;0.82;;;16.50;76.10;;;;;;10534485;28;20031;-63
2023/10/21 07:10:01;;;;;;;5.30;2.20;;;16.50;76.00;;;;;;10535443;28;20054;-67
2023/10/21 07:15:02;;;;;;;8.18;1.50;;;16.50;76.20;;;;;;10518035;28;20621;-62
2023/10/21 07:20:05;;;;;;;9.55;2.28;;;16.50;76.30;;;;;;10535730;28;20093;-62
2023/10/21 07:25:07;;;;;;;12.07;1.67;;;16.60;76.90;;;;;;10535263;28;20070;-63
2023/10/21 07:30:09;;;;;;;5.82;1.55;;;16.80;76.70;;;;;;10533829;28;20097;-63
2023/10/21 07:35:10;;;;;;;9.25;2.60;;;16.90;76.80;;;;;;10528729;28;20044;-64
2023/10/21 07:40:11;;;;;;;4.68;1.73;;;17.00;76.50;;;;;;10510284;28;20032;-61
2023/10/21 07:45:14;;;;;;;7.47;1.50;;;17.00;76.10;;;;;;10529737;28;20662;-63
2023/10/21 07:50:16;;;;;;;11.95;2.65;;;16.90;76.30;;;;;;10535114;28;20032;-63
2023/10/21 07:55:17;;;;;;;9.00;2.75;;;16.90;76.40;;;;;;10533624;28;20097;-62
2023/10/21 08:00:18;;;;;;;22.60;3.33;;;16.80;76.30;;;;;;10524103;28;20081;-62
2023/10/21 08:05:21;;;;;;;7.82;2.33;;;16.80;76.80;;;;;;10531550;28;20077;-61
2023/10/21 08:10:22;;;;;;;23.85;3.03;;;16.70;76.80;;;;;;10531493;28;20438;-61
2023/10/21 08:15:24;;;;;;;21.65;4.45;;;16.70;77.20;;;;;;10530462;28;20491;-63
2023/10/21 08:20:25;;;;;;;19.08;4.35;;;16.70;77.30;;;;;;10523410;28;20024;-60
2023/10/21 08:25:27;;;;;;;14.77;3.60;;;16.70;77.30;;;;;;10533013;28;20101;-61
2023/10/21 08:30:28;;;;;;;22.38;4.60;;;16.70;77.40;;;;;;10516711;28;20475;-62
2023/10/21 08:35:29;;;;;;;13.95;3.35;;;16.60;77.60;;;;;;10506211;28;20059;-61
2023/10/21 08:40:29;;;;;;;27.10;5.38;;;16.60;77.90;;;;;;10532463;28;20032;-60
2023/10/21 08:45:32;;;;;;;28.20;5.95;;;16.60;78.10;;;;;;10533274;28;20418;-60
2023/10/21 08:50:35;;;;;;;46.10;7.70;;;16.60;78.10;;;;;;10533436;28;20074;-61
2023/10/21 08:55:38;;;;;;;35.22;5.13;;;16.60;78.20;;;;;;10516602;28;20071;-60
2023/10/21 09:00:39;;;;;;;38.17;6.40;;;16.60;78.00;;;;;;10511140;28;20444;-63
2023/10/21 09:06:06;;;;;;;32.67;6.13;;;16.70;78.40;;;;;;10525785;28;20061;-61
2023/10/21 09:11:10;;;;;;;35.95;7.75;;;16.60;78.40;;;;;;10513306;28;20020;-66
2023/10/21 09:16:30;;;;;;;39.15;5.70;;;16.70;78.20;;;;;;10536802;28;20020;-63
2023/10/21 09:21:45;;;;;;;29.50;5.05;;;16.70;78.30;;;;;;10531539;28;20028;-64
2023/10/21 09:26:47;;;;;;;28.95;6.25;;;16.70;78.30;;;;;;10548421;28;20031;-63
2023/10/21 09:31:54;;;;;;;44.97;7.10;;;16.80;78.30;;;;;;10539229;28;20052;-65
2023/10/21 09:36:59;;;;;;;26.02;5.38;;;16.70;78.30;;;;;;10537521;28;20025;-64
2023/10/21 09:42:01;;;;;;;37.15;6.18;;;16.70;78.40;;;;;;10530028;28;20120;-64
2023/10/21 09:47:05;;;;;;;36.22;6.13;;;16.70;78.40;;;;;;10537311;28;20026;-62
2023/10/21 09:52:19;;;;;;;26.45;4.57;;;16.70;78.50;;;;;;10535522;28;20035;-60
2023/10/21 09:57:19;;;;;;;39.92;5.00;;;16.70;78.50;;;;;;10528121;28;20052;-60
2023/10/21 10:02:20;;;;;;;28.45;5.25;;;16.60;78.50;;;;;;10537731;28;20551;-63
2023/10/21 10:07:21;;;;;;;20.38;4.82;;;16.60;78.70;;;;;;10518958;28;20012;-60
2023/10/21 10:12:28;;;;;;;29.27;4.97;;;16.70;78.50;;;;;;10520034;28;20037;-62
2023/10/21 10:17:51;;;;;;;22.27;4.93;;;16.80;78.10;;;;;;10519136;28;20056;-64
2023/10/21 10:23:09;;;;;;;23.45;3.88;;;16.80;78.20;;;;;;10540555;28;20035;-59
2023/10/21 10:28:27;;;;;;;26.75;3.88;;;16.80;78.30;;;;;;10542644;28;20503;-61
2023/10/21 10:33:31;;;;;;;15.88;3.58;;;17.10;78.40;;;;;;10524269;28;20038;-63
2023/10/21 10:38:41;;;;;;;22.75;3.95;;;17.20;78.30;;;;;;10525122;28;20036;-61
2023/10/21 10:43:55;;;;;;;11.68;3.10;;;17.20;78.20;;;;;;10538156;28;20020;-61
2023/10/21 10:49:05;;;;;;;14.20;4.25;;;17.10;77.60;;;;;;10520155;28;20028;-60
2023/10/21 10:54:06;;;;;;;17.98;3.42;;;17.20;78.40;;;;;;10537402;28;20127;-61
2023/10/21 10:59:06;;;;;;;18.33;3.55;;;17.10;77.80;;;;;;10536581;28;20103;-60
2023/10/21 11:04:08;;;;;;;14.88;3.03;;;17.00;78.20;;;;;;10534585;28;20039;-61
2023/10/21 11:09:19;;;;;;;24.60;4.30;;;17.00;78.20;;;;;;10482613;28;22595;-60
2023/10/21 11:14:20;;;;;;;34.10;4.63;;;17.00;78.20;;;;;;10505351;28;20052;-60
2023/10/21 11:19:23;;;;;;;24.80;4.55;;;17.00;78.20;;;;;;10529873;28;20103;-60
2023/10/21 11:24:26;;;;;;;17.27;4.50;;;17.10;78.10;;;;;;10531356;28;20043;-60
2023/10/21 11:29:26;;;;;;;27.80;4.18;;;17.10;78.10;;;;;;10531265;28;20529;-60
2023/10/21 11:34:28;;;;;;;22.80;4.35;;;17.10;77.90;;;;;;10529536;28;20042;-60
2023/10/21 11:39:31;;;;;;;25.55;6.60;;;17.00;78.00;;;;;;10531503;28;20023;-60
2023/10/21 11:44:31;;;;;;;23.58;5.35;;;17.00;77.90;;;;;;10532979;28;20419;-59
2023/10/21 11:49:33;;;;;;;24.65;5.65;;;17.00;78.00;;;;;;10532137;28;20030;-60
2023/10/21 11:54:39;;;;;;;20.17;4.90;;;17.10;78.10;;;;;;10533465;28;20491;-65
2023/10/21 12:15:47;;;;;;;48.35;7.32;;;17.00;77.80;;;;;;10532161;28;20499;-60
2023/10/21 12:21:41;;;;;;;38.47;7.13;;;17.00;78.20;;;;;;10531400;28;20127;-60
2023/10/21 12:41:45;;;;;;;22.23;2.83;;;16.90;77.50;;;;;;10532163;28;20127;-60
2023/10/21 12:46:47;;;;;;;15.20;4.47;;;16.90;77.30;;;;;;10530181;28;20502;-60
2023/10/21 12:51:47;;;;;;;11.68;2.80;;;16.90;77.10;;;;;;10532778;28;20035;-60
2023/10/21 12:56:50;;;;;;;9.77;3.05;;;16.80;77.00;;;;;;10530587;28;20063;-60
2023/10/21 13:01:51;;;;;;;18.05;4.28;;;16.80;77.00;;;;;;10531702;28;20457;-60
2023/10/21 13:06:53;;;;;;;10.68;2.83;;;16.80;76.90;;;;;;10531990;28;20026;-61
2023/10/21 13:11:54;;;;;;;16.05;4.03;;;16.80;76.90;;;;;;10530754;28;20107;-60
2023/10/21 13:16:55;;;;;;;8.05;3.13;;;16.80;76.80;;;;;;10513412;28;20439;-60
2023/10/21 13:21:56;;;;;;;9.98;3.00;;;16.80;76.60;;;;;;10529983;28;20383;-61
2023/10/21 13:26:57;;;;;;;11.43;3.38;;;16.80;76.50;;;;;;10531551;28;20437;-60
2023/10/21 13:31:59;;;;;;;12.40;2.47;;;16.80;76.40;;;;;;10529460;28;20096;-61
2023/10/21 13:37:00;;;;;;;10.35;2.67;;;16.80;76.30;;;;;;10530357;28;20415;-61
2023/10/21 13:42:05;;;;;;;7.78;2.10;;;16.70;76.30;;;;;;10530386;28;20040;-61
2023/10/21 13:47:08;;;;;;;8.98;2.08;;;16.70;76.40;;;;;;10531117;28;20028;-60
2023/10/21 13:52:08;;;;;;;7.78;2.03;;;16.70;76.40;;;;;;10530851;28;20095;-61
2023/10/21 13:57:09;;;;;;;9.05;1.88;;;16.70;76.40;;;;;;10520602;28;20044;-59
2023/10/21 14:02:11;;;;;;;13.13;2.47;;;16.70;76.60;;;;;;10536762;28;20081;-59
2023/10/21 14:07:12;;;;;;;12.77;1.83;;;16.90;76.90;;;;;;10537432;28;20461;-61
2023/10/21 14:12:13;;;;;;;20.38;3.67;;;16.90;76.00;;;;;;10537408;28;20111;-62
2023/10/21 14:17:14;;;;;;;12.15;2.97;;;16.90;76.10;;;;;;10536552;28;20032;-62
2023/10/21 14:22:15;;;;;;;16.08;3.83;;;16.90;76.10;;;;;;10535320;28;20568;-63
2023/10/21 14:27:15;;;;;;;8.80;2.90;;;16.90;76.10;;;;;;10536300;28;20413;-61
2023/10/21 14:32:16;;;;;;;10.30;2.45;;;16.90;75.80;;;;;;10536670;28;20035;-61
2023/10/21 14:37:17;;;;;;;14.88;2.67;;;16.90;75.80;;;;;;10534639;28;20028;-62
2023/10/21 14:42:17;;;;;;;14.10;3.45;;;16.80;75.80;;;;;;10536535;28;20039;-63
2023/10/21 14:47:22;;;;;;;19.85;4.35;;;16.80;76.20;;;;;;10537113;28;20027;-63
2023/10/21 14:52:23;;;;;;;19.33;3.78;;;16.70;76.20;;;;;;10535485;28;20028;-62
2023/10/21 14:57:26;;;;;;;26.05;4.45;;;16.80;76.30;;;;;;10535905;28;20419;-63
2023/10/21 15:02:27;;;;;;;17.80;3.40;;;16.70;76.10;;;;;;10536279;28;20387;-62
2023/10/21 15:07:27;;;;;;;24.98;4.03;;;16.70;75.90;;;;;;10536346;28;20479;-61
2023/10/21 15:12:28;;;;;;;19.80;3.30;;;16.70;76.00;;;;;;10535361;28;20032;-61
2023/10/21 15:17:29;;;;;;;14.82;4.10;;;16.70;75.60;;;;;;10536620;28;20028;-60
2023/10/21 15:22:30;;;;;;;14.80;3.13;;;16.60;75.50;;;;;;10535697;28;20466;-61
2023/10/21 15:27:31;;;;;;;17.67;4.13;;;16.70;75.70;;;;;;10534024;28;20028;-61
2023/10/21 15:32:32;;;;;;;25.55;6.95;;;16.80;75.60;;;;;;10533975;28;20711;-60
2023/10/21 15:37:32;;;;;;;23.25;8.80;;;16.80;75.30;;;;;;10534143;28;20027;-63
2023/10/21 15:42:34;;;;;;;16.35;4.35;;;16.80;77.00;;;;;;10534299;28;20032;-60
2023/10/21 15:47:35;;;;;;;24.05;5.10;;;16.80;76.00;;;;;;10535041;28;20059;-63
2023/10/21 15:52:36;;;;;;;15.43;4.25;;;16.90;75.20;;;;;;10533746;28;20066;-60
2023/10/21 15:57:37;;;;;;;12.40;3.33;;;17.10;74.50;;;;;;10533672;28;20051;-62
2023/10/21 16:02:39;;;;;;;15.77;3.35;;;17.20;74.20;;;;;;10531729;28;20032;-61
2023/10/21 16:07:40;;;;;;;11.75;2.70;;;17.50;73.70;;;;;;10533702;28;20078;-61
2023/10/21 16:12:40;;;;;;;11.02;2.60;;;17.40;73.80;;;;;;10532869;28;20028;-61
2023/10/21 16:17:42;;;;;;;18.15;2.78;;;17.50;73.30;;;;;;10533069;28;20051;-60
2023/10/21 16:22:44;;;;;;;7.05;2.33;;;17.60;72.70;;;;;;10532713;28;20043;-61
2023/10/21 16:27:45;;;;;;;14.95;3.65;;;17.90;72.00;;;;;;10532709;28;20449;-62
2023/10/21 16:32:46;;;;;;;16.13;2.83;;;17.70;72.80;;;;;;10529714;28;20032;-62
2023/10/21 16:37:46;;;;;;;23.10;5.90;;;17.60;73.40;;;;;;10532717;28;20024;-62
2023/10/21 16:42:47;;;;;;;19.95;2.75;;;17.50;74.00;;;;;;10531698;28;20497;-62
2023/10/21 16:47:48;;;;;;;18.88;3.13;;;17.30;74.40;;;;;;10532687;28;20475;-62
2023/10/21 16:52:51;;;;;;;37.25;5.78;;;17.20;74.70;;;;;;10531618;28;20487;-63
2023/10/21 16:57:52;;;;;;;36.90;5.85;;;17.40;74.10;;;;;;10531469;28;20052;-61
2023/10/21 17:02:53;;;;;;;25.30;3.90;;;17.30;74.90;;;;;;10531706;28;20123;-60
2023/10/21 17:07:53;;;;;;;19.55;4.00;;;17.20;75.50;;;;;;10530542;28;20028;-62
2023/10/21 17:12:54;;;;;;;26.77;3.90;;;17.10;75.50;;;;;;10529965;28;20031;-62
2023/10/21 17:17:56;;;;;;;18.08;5.53;;;17.00;75.80;;;;;;10529679;28;20028;-62
2023/10/21 17:22:57;;;;;;;28.27;5.20;;;17.00;76.00;;;;;;10529430;28;20082;-62
2023/10/21 17:27:57;;;;;;;17.58;3.65;;;16.90;76.10;;;;;;10531280;28;20057;-62
2023/10/21 17:32:58;;;;;;;16.33;3.35;;;16.90;76.10;;;;;;10535244;28;20038;-62
2023/10/21 17:37:59;;;;;;;22.10;3.20;;;16.90;76.10;;;;;;10537593;28;20036;-61
2023/10/21 17:43:00;;;;;;;14.57;3.35;;;16.80;76.10;;;;;;10529170;28;20032;-61
2023/10/21 17:48:00;;;;;;;14.23;3.22;;;16.80;76.60;;;;;;10505555;28;20161;-61
2023/10/21 17:53:01;;;;;;;14.40;2.72;;;16.90;76.00;;;;;;10518573;28;20034;-61
2023/10/21 17:58:02;;;;;;;11.18;2.97;;;16.90;76.10;;;;;;10511174;28;20563;-60
2023/10/21 18:03:03;;;;;;;9.60;3.10;;;16.90;76.10;;;;;;10523962;28;20032;-61
2023/10/21 18:08:03;;;;;;;10.52;3.15;;;16.90;76.40;;;;;;10526368;28;20027;-60
2023/10/21 18:13:05;;;;;;;10.82;3.25;;;16.90;76.60;;;;;;10525492;28;20036;-60
2023/10/21 18:18:05;;;;;;;11.43;2.42;;;16.80;76.70;;;;;;10525882;28;20027;-61
2023/10/21 18:23:06;;;;;;;7.55;2.50;;;16.80;76.90;;;;;;10534571;28;20479;-61
2023/10/21 18:28:07;;;;;;;10.30;2.95;;;16.80;76.90;;;;;;10534836;28;20024;-61
2023/10/21 18:33:07;;;;;;;14.88;3.45;;;16.80;77.10;;;;;;10535849;28;20498;-61
2023/10/21 18:38:08;;;;;;;14.55;2.70;;;16.80;76.90;;;;;;10534033;28;20034;-61
2023/10/21 18:43:09;;;;;;;5.78;1.92;;;16.80;77.50;;;;;;10534223;28;20020;-61
2023/10/21 18:48:10;;;;;;;8.48;2.25;;;16.80;77.00;;;;;;10534647;28;20022;-60
2023/10/21 18:53:10;;;;;;;8.77;2.60;;;16.80;77.00;;;;;;10525762;28;20504;-61
2023/10/21 18:58:11;;;;;;;11.95;3.72;;;16.80;77.00;;;;;;10530549;28;20036;-60
2023/10/21 19:03:12;;;;;;;4.93;1.95;;;16.80;76.90;;;;;;10529317;28;20517;-61
2023/10/21 19:08:12;;;;;;;7.05;1.85;;;16.80;77.60;;;;;;10529408;28;20475;-61
2023/10/21 19:13:15;;;;;;;10.45;2.53;;;16.80;77.10;;;;;;10535283;28;20031;-61
2023/10/21 19:18:16;;;;;;;6.53;2.03;;;16.70;77.10;;;;;;10536211;28;20031;-61
2023/10/21 19:23:17;;;;;;;10.73;1.80;;;16.80;76.80;;;;;;10535695;28;20039;-61
2023/10/21 19:28:18;;;;;;;5.20;2.13;;;16.80;76.70;;;;;;10536384;28;20027;-61
2023/10/21 19:33:18;;;;;;;6.15;1.95;;;16.70;76.70;;;;;;10535804;28;20028;-61
2023/10/21 19:38:19;;;;;;;7.20;1.85;;;16.70;76.80;;;;;;10535725;28;20035;-61
2023/10/21 19:43:20;;;;;;;7.45;1.98;;;16.70;76.80;;;;;;10535563;28;20036;-61
2023/10/21 19:48:21;;;;;;;3.28;1.25;;;16.70;76.90;;;;;;10535729;28;20360;-61
2023/10/21 19:53:22;;;;;;;10.43;2.25;;;16.70;76.80;;;;;;10534188;28;20399;-61
2023/10/21 19:58:25;;;;;;;6.30;1.48;;;16.70;76.80;;;;;;10534627;28;20044;-61
2023/10/21 20:03:27;;;;;;;6.97;1.38;;;16.70;76.70;;;;;;10534321;28;20079;-61
2023/10/21 20:08:28;;;;;;;7.07;1.90;;;16.70;76.70;;;;;;10534353;28;20038;-61
2023/10/21 20:13:28;;;;;;;8.63;1.90;;;16.60;76.70;;;;;;10533399;28;20035;-61
2023/10/21 20:18:29;;;;;;;2.63;1.30;;;16.60;76.60;;;;;;10534395;28;20036;-61
2023/10/21 20:23:31;;;;;;;4.50;1.35;;;16.60;76.60;;;;;;10534170;28;20032;-61
2023/10/21 20:28:35;;;;;;;2.70;1.13;;;16.60;76.60;;;;;;10518535;28;20020;-61
2023/10/21 20:33:36;;;;;;;9.40;2.10;;;16.60;76.60;;;;;;10534027;28;20031;-61
2023/10/21 20:38:40;;;;;;;3.90;1.13;;;16.60;76.60;;;;;;10533296;28;20051;-61
2023/10/21 20:43:42;;;;;;;4.72;1.55;;;16.60;76.50;;;;;;10533506;28;20162;-61
2023/10/21 20:48:43;;;;;;;6.43;1.92;;;16.60;76.60;;;;;;10533087;28;20032;-61
2023/10/21 20:53:43;;;;;;;4.05;1.40;;;16.60;76.50;;;;;;10533186;28;20044;-61
2023/10/21 20:58:46;;;;;;;3.15;0.95;;;16.60;76.50;;;;;;10533046;28;20028;-61
2023/10/21 21:03:46;;;;;;;4.70;1.42;;;16.60;76.50;;;;;;10541346;28;20043;-61
2023/10/21 21:08:47;;;;;;;2.75;1.10;;;16.60;76.50;;;;;;10545763;28;20655;-61
2023/10/21 21:13:48;;;;;;;2.13;1.10;;;16.60;76.50;;;;;;10546817;28;20031;-61
2023/10/21 21:18:48;;;;;;;4.72;1.10;;;16.60;76.40;;;;;;10546841;28;20035;-61
2023/10/21 21:23:49;;;;;;;3.35;1.63;;;16.60;76.40;;;;;;10545504;28;20602;-61
2023/10/21 21:28:50;;;;;;;4.13;1.58;;;16.60;76.40;;;;;;10544638;28;20035;-61
2023/10/21 21:33:53;;;;;;;3.33;1.20;;;16.60;76.40;;;;;;10546881;28;20175;-61
2023/10/21 21:38:53;;;;;;;4.90;1.15;;;16.60;76.40;;;;;;10546211;28;20045;-61
2023/10/21 21:43:54;;;;;;;5.60;1.85;;;16.50;76.40;;;;;;10546625;28;20141;-61
2023/10/21 21:48:55;;;;;;;4.15;1.63;;;16.60;76.40;;;;;;10544596;28;20028;-61
2023/10/21 21:53:57;;;;;;;2.13;0.85;;;16.50;76.30;;;;;;10545950;28;20040;-61
2023/10/21 21:58:58;;;;;;;3.72;1.00;;;16.60;76.30;;;;;;10546269;28;20024;-61
2023/10/21 22:03:59;;;;;;;3.13;1.55;;;16.50;76.30;;;;;;10545569;28;20036;-61
2023/10/21 22:09:00;;;;;;;2.92;0.98;;;16.50;76.80;;;;;;10545106;28;20542;-61
2023/10/21 22:14:06;;;;;;;3.35;0.90;;;16.50;76.30;;;;;;10542755;28;20035;-61
2023/10/21 22:19:07;;;;;;;2.20;1.00;;;16.50;76.30;;;;;;10538886;28;20043;-61
2023/10/21 22:24:08;;;;;;;2.85;1.00;;;16.50;76.20;;;;;;10537670;28;20028;-61
2023/10/21 22:29:11;;;;;;;2.03;0.90;;;16.50;76.20;;;;;;10538471;28;20111;-61
2023/10/21 22:34:12;;;;;;;2.53;1.02;;;16.50;76.20;;;;;;10538679;28;20519;-61
2023/10/21 22:39:16;;;;;;;2.35;0.70;;;16.50;76.20;;;;;;10538002;28;20043;-61
2023/10/21 22:44:16;;;;;;;2.20;1.10;;;16.50;76.20;;;;;;10538072;28;20089;-61
2023/10/21 22:49:17;;;;;;;7.00;1.38;;;16.50;76.20;;;;;;10537684;28;20020;-61
2023/10/21 22:54:18;;;;;;;2.38;0.80;;;16.50;76.20;;;;;;10537922;28;20046;-61
2023/10/21 22:59:19;;;;;;;2.08;0.82;;;16.50;76.20;;;;;;10537121;28;20501;-61
2023/10/21 23:04:19;;;;;;;1.52;0.60;;;16.50;76.20;;;;;;10537268;28;20047;-61
2023/10/21 23:09:34;;;;;;;2.47;0.65;;;16.50;76.20;;;;;;10537308;28;20030;-61
2023/10/21 23:14:34;;;;;;;1.60;0.73;;;16.40;76.10;;;;;;10536804;28;20032;-61
2023/10/21 23:19:35;;;;;;;3.08;0.93;;;16.50;76.10;;;;;;10536102;28;20417;-61
2023/10/21 23:24:39;;;;;;;2.55;0.85;;;16.50;76.10;;;;;;10535281;28;20102;-61
2023/10/21 23:29:40;;;;;;;1.35;0.43;;;16.40;76.10;;;;;;10531673;28;20035;-61
2023/10/21 23:34:40;;;;;;;1.42;0.80;;;16.40;76.30;;;;;;10535994;28;20499;-61
2023/10/21 23:39:41;;;;;;;4.50;1.52;;;16.40;76.00;;;;;;10535769;28;20410;-61
2023/10/21 23:44:42;;;;;;;1.60;0.70;;;16.40;76.10;;;;;;10535814;28;20650;-61
2023/10/21 23:49:43;;;;;;;4.57;1.23;;;16.40;76.00;;;;;;10535318;28;20024;-60
2023/10/21 23:54:43;;;;;;;0.93;0.40;;;16.40;76.10;;;;;;10535095;28;20040;-61
2023/10/21 23:59:45;;;;;;;2.63;0.50;;;16.40;76.00;;;;;;10535445;28;20020;-61
